createdAt,value
2017-07-20T00:02:05.552Z,80.50
2017-07-20T00:04:31.932Z,77.71
2017-07-20T00:06:58.307Z,77.62
2017-07-20T00:09:24.648Z,77.42
2017-07-20T00:11:51.038Z,77.32
2017-07-20T00:14:17.420Z,82.78
2017-07-20T00:16:43.796Z,80.60
2017-07-20T00:19:10.169Z,87.41
2017-07-20T00:21:36.569Z,84.08
2017-07-20T00:24:02.949Z,80.16
2017-07-20T00:26:29.349Z,77.42
2017-07-20T00:28:55.702Z,77.71
2017-07-20T00:31:22.051Z,78.11
2017-07-20T00:33:48.415Z,79.62
2017-07-20T00:36:14.820Z,77.60
2017-07-20T00:38:41.178Z,82.27
2017-07-20T00:41:07.555Z,78.83
2017-07-20T00:43:33.924Z,82.25
2017-07-20T00:46:00.286Z,85.50
2017-07-20T00:48:26.656Z,81.46
2017-07-20T00:50:53.084Z,83.62
2017-07-20T00:53:19.502Z,81.23
2017-07-20T00:55:45.888Z,82.13
2017-07-20T00:58:12.231Z,85.95
2017-07-20T01:00:38.727Z,79.57
2017-07-20T01:03:05.127Z,78.16
2017-07-20T01:05:31.496Z,78.49
2017-07-20T01:07:57.851Z,79.02
2017-07-20T01:10:24.201Z,77.95
2017-07-20T01:12:50.605Z,79.07
2017-07-20T01:15:16.984Z,79.49
2017-07-20T01:17:43.364Z,83.13
2017-07-20T01:20:09.789Z,84.97
2017-07-20T01:22:36.206Z,85.57
2017-07-20T01:25:02.589Z,84.79
2017-07-20T01:27:28.925Z,85.51
2017-07-20T01:29:55.321Z,84.81
2017-07-20T01:32:21.673Z,84.65
2017-07-20T01:34:48.031Z,84.54
2017-07-20T01:37:14.408Z,85.48
2017-07-20T01:39:40.841Z,84.08
2017-07-20T01:42:07.229Z,85.97
2017-07-20T01:44:33.622Z,86.08
2017-07-20T01:47:00.016Z,87.48
2017-07-20T01:49:26.391Z,84.23
2017-07-20T01:51:52.798Z,88.58
2017-07-20T01:54:19.190Z,80.58
2017-07-20T01:56:45.577Z,82.35
2017-07-20T01:59:12.065Z,83.68
2017-07-20T02:01:38.480Z,85.58
2017-07-20T02:04:04.852Z,86.83
2017-07-20T02:06:31.268Z,85.68
2017-07-20T02:08:57.666Z,80.16
2017-07-20T02:11:24.047Z,85.45
2017-07-20T02:13:50.432Z,87.50
2017-07-20T02:16:16.800Z,82.95
2017-07-20T02:18:43.193Z,79.36
2017-07-20T02:21:09.555Z,79.08
2017-07-20T02:23:35.950Z,78.45
2017-07-20T02:26:02.375Z,80.20
2017-07-20T02:28:35.002Z,85.28
2017-07-20T02:31:01.689Z,84.10
2017-07-20T02:33:35.051Z,84.77
2017-07-20T02:36:01.411Z,83.70
2017-07-20T02:38:32.833Z,84.55
2017-07-20T02:41:04.503Z,85.03
2017-07-20T02:43:36.389Z,83.99
2017-07-20T02:46:02.764Z,87.86
2017-07-20T02:48:29.103Z,82.87
2017-07-20T02:50:55.592Z,80.47
2017-07-20T02:53:22.058Z,79.52
2017-07-20T02:55:48.738Z,83.01
2017-07-20T02:58:15.229Z,83.95
2017-07-20T03:00:41.729Z,84.04
2017-07-20T03:03:08.075Z,79.63
2017-07-20T03:05:34.652Z,79.86
2017-07-20T03:08:07.054Z,82.61
2017-07-20T03:10:40.525Z,85.52
2017-07-20T03:13:10.156Z,86.99
2017-07-20T03:15:36.619Z,87.69
2017-07-20T03:18:02.972Z,89.17
2017-07-20T03:20:32.447Z,89.46
2017-07-20T03:23:05.963Z,88.87
2017-07-20T03:25:32.329Z,88.44
2017-07-20T03:27:58.845Z,82.84
2017-07-20T03:30:25.401Z,83.79
2017-07-20T03:32:51.875Z,80.24
2017-07-20T03:35:18.682Z,89.35
2017-07-20T03:37:46.242Z,87.96
2017-07-20T03:40:12.694Z,81.93
2017-07-20T03:42:39.312Z,86.49
2017-07-20T03:45:05.851Z,84.53
2017-07-20T03:47:32.486Z,81.11
2017-07-20T03:50:03.979Z,80.63
2017-07-20T03:52:30.615Z,84.15
2017-07-20T03:54:57.038Z,80.29
2017-07-20T03:57:24.316Z,81.89
2017-07-20T03:59:53.883Z,83.68
2017-07-20T04:02:24.288Z,82.93
2017-07-20T04:04:50.709Z,89.22
2017-07-20T04:20:18.009Z,81.96
2017-07-20T04:22:44.376Z,82.83
2017-07-20T04:25:10.751Z,83.18
2017-07-20T04:27:37.154Z,81.08
2017-07-20T04:30:03.537Z,83.55
2017-07-20T04:32:29.925Z,82.69
2017-07-20T04:34:56.314Z,83.25
2017-07-20T04:37:22.704Z,83.15
2017-07-20T04:39:49.104Z,84.72
2017-07-20T04:42:15.474Z,86.67
2017-07-20T04:44:41.875Z,86.53
2017-07-20T04:47:08.308Z,86.04
2017-07-20T04:49:34.687Z,86.07
2017-07-20T04:52:01.120Z,85.29
2017-07-20T04:54:27.555Z,85.05
2017-07-20T04:56:53.935Z,84.48
2017-07-20T04:59:20.296Z,84.07
2017-07-20T05:01:46.663Z,84.31
2017-07-20T05:04:13.024Z,85.19
2017-07-20T05:06:39.395Z,84.94
2017-07-20T05:09:05.724Z,86.36
2017-07-20T05:11:32.061Z,83.72
2017-07-20T05:13:58.434Z,85.25
2017-07-20T05:16:24.817Z,84.00
2017-07-20T05:18:51.166Z,84.66
2017-07-20T05:21:17.540Z,84.03
2017-07-20T05:23:43.887Z,86.44
2017-07-20T05:26:10.235Z,84.22
2017-07-20T05:28:36.594Z,85.40
2017-07-20T05:31:02.974Z,83.55
2017-07-20T05:33:29.354Z,83.09
2017-07-20T05:35:55.757Z,82.24
2017-07-20T05:38:22.180Z,83.49
2017-07-20T05:40:48.570Z,83.38
2017-07-20T05:43:14.977Z,84.00
2017-07-20T05:45:41.438Z,84.55
2017-07-20T05:48:07.832Z,86.96
2017-07-20T05:50:34.184Z,88.52
2017-07-20T05:53:00.533Z,87.27
2017-07-20T05:55:26.900Z,87.03
2017-07-20T05:57:53.268Z,84.94
2017-07-20T06:00:19.686Z,82.82
2017-07-20T06:02:46.063Z,85.63
2017-07-20T06:05:12.451Z,88.43
2017-07-20T06:07:38.836Z,82.43
2017-07-20T06:10:05.223Z,83.28
2017-07-20T06:12:31.616Z,86.02
2017-07-20T06:14:57.997Z,83.65
2017-07-20T06:17:24.365Z,82.03
2017-07-20T06:19:50.729Z,83.89
2017-07-20T06:22:17.092Z,85.04
2017-07-20T06:24:43.745Z,86.63
2017-07-20T06:27:10.106Z,85.36
2017-07-20T06:29:36.515Z,83.91
2017-07-20T06:32:02.866Z,83.02
2017-07-20T06:34:29.235Z,83.89
2017-07-20T06:36:55.672Z,81.92
2017-07-20T06:39:22.040Z,81.87
2017-07-20T06:41:48.419Z,86.83
2017-07-20T06:44:14.796Z,85.90
2017-07-20T06:46:41.160Z,83.07
2017-07-20T06:49:07.552Z,82.74
2017-07-20T06:51:33.897Z,82.62
2017-07-20T06:54:00.263Z,82.52
2017-07-20T06:56:26.662Z,85.44
2017-07-20T06:58:53.049Z,82.90
2017-07-20T07:01:19.377Z,83.38
2017-07-20T07:03:45.741Z,83.36
2017-07-20T07:06:12.082Z,84.34
2017-07-20T07:08:38.444Z,82.06
2017-07-20T07:11:04.821Z,84.09
2017-07-20T07:13:31.180Z,82.53
2017-07-20T07:15:57.554Z,84.97
2017-07-20T07:18:23.904Z,86.08
2017-07-20T07:20:50.260Z,83.41
2017-07-20T07:23:16.625Z,85.34
2017-07-20T07:25:43.004Z,82.00
2017-07-20T07:28:09.345Z,83.56
2017-07-20T07:30:35.737Z,84.89
2017-07-20T07:33:02.167Z,85.34
2017-07-20T07:35:28.505Z,83.50
2017-07-20T07:37:54.887Z,84.31
2017-07-20T07:40:21.253Z,84.06
2017-07-20T07:42:47.626Z,85.63
2017-07-20T07:45:13.995Z,84.95
2017-07-20T07:47:40.381Z,84.98
2017-07-20T07:50:07.504Z,83.14
2017-07-20T07:52:33.853Z,83.74
2017-07-20T07:55:00.239Z,82.00
2017-07-20T07:57:26.577Z,82.98
2017-07-20T07:59:52.964Z,85.12
2017-07-20T08:02:19.333Z,85.26
2017-07-20T08:04:45.719Z,83.43
2017-07-20T08:07:12.061Z,83.86
2017-07-20T08:09:38.440Z,83.18
2017-07-20T08:12:04.868Z,82.52
2017-07-20T08:14:31.247Z,83.84
2017-07-20T08:16:57.584Z,84.25
2017-07-20T08:19:23.921Z,83.94
2017-07-20T08:21:50.275Z,82.47
2017-07-20T08:24:16.614Z,82.58
2017-07-20T08:26:43.002Z,82.56
2017-07-20T08:29:09.352Z,83.37
2017-07-20T08:31:35.708Z,84.62
2017-07-20T08:34:02.104Z,81.65
2017-07-20T08:36:28.484Z,82.07
2017-07-20T08:38:54.863Z,81.72
2017-07-20T08:41:21.223Z,81.66
2017-07-20T08:43:47.583Z,81.52
2017-07-20T08:46:13.956Z,81.47
2017-07-20T08:48:40.364Z,81.97
2017-07-20T08:51:06.736Z,81.88
2017-07-20T08:53:33.099Z,82.10
2017-07-20T08:55:59.479Z,81.21
2017-07-20T08:58:25.851Z,81.34
2017-07-20T09:00:52.259Z,81.67
2017-07-20T09:03:18.653Z,81.33
2017-07-20T09:05:45.000Z,81.89
2017-07-20T09:08:11.550Z,81.44
2017-07-20T09:10:38.966Z,81.65
2017-07-20T09:13:05.377Z,81.36
2017-07-20T09:15:31.965Z,80.64
2017-07-20T09:18:01.959Z,80.48
2017-07-20T09:20:28.387Z,79.28
2017-07-20T09:23:00.218Z,78.71
2017-07-20T09:25:26.874Z,78.88
2017-07-20T09:27:53.381Z,80.84
2017-07-20T09:30:25.134Z,80.08
2017-07-20T09:32:54.491Z,79.28
2017-07-20T09:35:21.740Z,79.43
2017-07-20T09:37:53.659Z,80.83
2017-07-20T09:40:20.465Z,78.55
2017-07-20T09:42:47.252Z,79.04
2017-07-20T09:45:25.675Z,78.54
2017-07-20T09:47:52.181Z,78.13
2017-07-20T09:50:18.650Z,79.11
2017-07-20T09:52:45.395Z,80.49
2017-07-20T09:55:11.978Z,77.97
2017-07-20T09:57:41.461Z,77.72
2017-07-20T10:00:07.953Z,80.07
2017-07-20T10:02:34.307Z,78.50
2017-07-20T10:05:02.049Z,78.16
2017-07-20T10:07:33.701Z,76.96
2017-07-20T10:10:00.560Z,76.87
2017-07-20T10:12:32.050Z,77.72
2017-07-20T10:14:59.155Z,76.71
2017-07-20T10:17:30.691Z,76.45
2017-07-20T10:20:02.196Z,77.10
2017-07-20T10:22:28.886Z,74.66
2017-07-20T10:25:00.340Z,74.58
2017-07-20T10:27:27.018Z,74.18
2017-07-20T10:29:54.184Z,73.87
2017-07-20T10:32:20.724Z,74.96
2017-07-20T10:34:52.699Z,73.76
2017-07-20T10:37:20.033Z,74.88
2017-07-20T10:39:47.190Z,72.96
2017-07-20T10:42:14.082Z,73.39
2017-07-20T10:44:40.423Z,72.88
2017-07-20T10:47:12.050Z,72.01
2017-07-20T10:49:38.461Z,72.29
2017-07-20T10:52:05.164Z,72.59
2017-07-20T10:54:31.626Z,71.91
2017-07-20T10:56:58.371Z,71.71
2017-07-20T10:59:29.913Z,71.84
2017-07-20T11:01:56.234Z,70.54
2017-07-20T11:04:22.778Z,72.23
2017-07-20T11:06:50.482Z,72.37
2017-07-20T11:09:20.010Z,69.50
2017-07-20T11:11:47.780Z,70.82
2017-07-20T11:14:14.191Z,69.62
2017-07-20T11:16:42.356Z,70.62
2017-07-20T11:19:12.633Z,70.12
2017-07-20T11:21:39.048Z,69.82
2017-07-20T11:24:05.531Z,70.30
2017-07-20T11:26:34.663Z,68.42
2017-07-20T11:29:01.702Z,67.50
2017-07-20T11:31:29.321Z,67.00
2017-07-20T11:33:56.958Z,65.90
2017-07-20T11:36:24.799Z,66.16
2017-07-20T11:38:56.971Z,64.75
2017-07-20T11:41:23.328Z,64.41
2017-07-20T11:43:49.699Z,64.53
2017-07-20T11:46:16.181Z,61.75
2017-07-20T11:48:47.995Z,61.72
2017-07-20T11:51:19.636Z,61.15
2017-07-20T11:53:51.673Z,61.14
2017-07-20T11:56:23.216Z,60.33
2017-07-20T11:58:49.655Z,58.75
2017-07-20T12:01:16.079Z,59.84
2017-07-20T12:03:46.405Z,59.48
2017-07-20T12:06:12.751Z,60.73
2017-07-20T12:08:39.338Z,58.91
2017-07-20T12:11:06.064Z,58.06
2017-07-20T12:13:32.811Z,57.95
2017-07-20T12:16:04.473Z,56.88
2017-07-20T12:18:30.910Z,55.18
2017-07-20T12:20:57.788Z,52.71
2017-07-20T12:23:29.496Z,54.18
2017-07-20T12:26:01.110Z,56.02
2017-07-20T12:28:32.701Z,56.94
2017-07-20T12:30:59.584Z,56.71
2017-07-20T12:33:26.250Z,57.09
2017-07-20T12:35:53.685Z,58.46
2017-07-20T12:38:20.421Z,57.44
2017-07-20T12:40:47.517Z,56.16
2017-07-20T12:43:19.055Z,54.85
2017-07-20T12:45:45.524Z,50.42
2017-07-20T12:48:11.996Z,49.08
2017-07-20T12:50:41.416Z,49.56
2017-07-20T12:53:13.054Z,47.98
2017-07-20T12:55:42.455Z,46.54
2017-07-20T12:58:09.307Z,44.66
2017-07-20T13:00:35.690Z,45.13
2017-07-20T13:03:03.077Z,42.60
2017-07-20T13:05:29.966Z,41.85
2017-07-20T13:08:02.018Z,41.77
2017-07-20T13:10:29.704Z,40.26
2017-07-20T13:12:56.108Z,39.60
2017-07-20T13:15:22.936Z,39.67
2017-07-20T13:17:49.756Z,38.97
2017-07-20T13:20:21.415Z,38.77
2017-07-20T13:22:47.773Z,38.93
2017-07-20T13:25:14.083Z,39.34
2017-07-20T13:27:40.418Z,38.78
2017-07-20T13:30:06.760Z,39.67
2017-07-20T13:32:33.109Z,38.25
2017-07-20T13:34:59.420Z,36.55
2017-07-20T13:37:25.750Z,37.78
2017-07-20T13:39:52.119Z,39.13
2017-07-20T13:42:18.516Z,39.88
2017-07-20T13:44:44.891Z,42.09
2017-07-20T13:47:11.255Z,41.06
2017-07-20T13:49:37.620Z,41.84
2017-07-20T13:52:03.987Z,42.30
2017-07-20T13:54:30.339Z,41.03
2017-07-20T13:56:56.698Z,40.63
2017-07-20T13:59:23.040Z,39.87
2017-07-20T14:01:49.395Z,43.10
2017-07-20T14:04:15.732Z,43.34
2017-07-20T14:06:42.056Z,41.08
2017-07-20T14:09:08.437Z,41.04
2017-07-20T14:11:34.939Z,39.59
2017-07-20T14:14:01.300Z,38.07
2017-07-20T14:16:27.657Z,38.84
2017-07-20T14:18:54.011Z,40.70
2017-07-20T14:21:20.343Z,39.19
2017-07-20T14:23:46.688Z,42.08
2017-07-20T14:26:13.051Z,41.52
2017-07-20T14:28:39.418Z,40.78
2017-07-20T14:31:05.751Z,40.16
2017-07-20T14:33:32.132Z,39.18
2017-07-20T14:35:58.536Z,39.44
2017-07-20T14:38:24.863Z,38.78
2017-07-20T14:40:51.240Z,38.56
2017-07-20T14:43:17.560Z,39.56
2017-07-20T14:45:43.882Z,40.52
2017-07-20T14:48:10.248Z,40.21
2017-07-20T14:50:36.576Z,41.72
2017-07-20T14:53:02.906Z,43.13
2017-07-20T14:55:29.275Z,41.62
2017-07-20T14:57:55.590Z,42.18
2017-07-20T15:00:21.931Z,41.38
2017-07-20T15:02:48.295Z,39.57
2017-07-20T15:05:14.638Z,41.75
2017-07-20T15:07:41.037Z,40.66
2017-07-20T15:10:07.391Z,40.66
2017-07-20T15:12:35.058Z,40.42
2017-07-20T15:15:01.416Z,40.84
2017-07-20T15:17:27.763Z,41.28
2017-07-20T15:19:54.156Z,42.13
2017-07-20T15:22:20.506Z,40.80
2017-07-20T15:24:46.838Z,40.13
2017-07-20T15:27:13.167Z,41.51
2017-07-20T15:29:39.503Z,42.95
2017-07-20T15:32:05.862Z,41.79
2017-07-20T15:34:32.198Z,41.69
2017-07-20T15:36:58.571Z,42.05
2017-07-20T15:39:24.926Z,41.45
2017-07-20T15:41:51.274Z,42.17
2017-07-20T15:44:17.699Z,42.74
2017-07-20T15:46:44.076Z,42.14
2017-07-20T15:49:10.428Z,43.26
2017-07-20T15:51:36.800Z,44.44
2017-07-20T15:54:03.145Z,44.35
2017-07-20T15:56:29.502Z,45.25
2017-07-20T15:58:55.849Z,43.07
2017-07-20T16:01:22.191Z,42.45
2017-07-20T16:03:48.539Z,41.11
2017-07-20T16:06:14.922Z,42.38
2017-07-20T16:08:41.297Z,42.54
2017-07-20T16:11:07.647Z,43.57
2017-07-20T16:13:33.987Z,42.61
2017-07-20T16:16:00.348Z,42.40
2017-07-20T16:18:26.697Z,46.07
2017-07-20T16:20:53.033Z,43.60
2017-07-20T16:23:19.379Z,43.32
2017-07-20T16:25:45.752Z,45.14
2017-07-20T16:28:12.091Z,43.42
2017-07-20T16:30:38.434Z,43.80
2017-07-20T16:33:04.794Z,43.00
2017-07-20T16:35:31.165Z,44.03
2017-07-20T16:37:57.512Z,43.95
2017-07-20T16:40:23.852Z,44.44
2017-07-20T16:42:50.213Z,44.23
2017-07-20T16:45:16.578Z,45.78
2017-07-20T16:47:42.947Z,46.19
2017-07-20T16:50:09.296Z,45.29
2017-07-20T16:52:35.667Z,45.49
2017-07-20T16:55:02.007Z,44.84
2017-07-20T16:57:28.402Z,44.44
2017-07-20T16:59:54.799Z,46.13
2017-07-20T17:02:21.155Z,45.43
2017-07-20T17:04:47.521Z,45.93
2017-07-20T17:07:13.859Z,45.36
2017-07-20T17:09:40.419Z,45.32
2017-07-20T17:12:06.785Z,45.25
2017-07-20T17:14:33.103Z,45.76
2017-07-20T17:16:59.456Z,46.09
2017-07-20T17:19:25.847Z,45.76
2017-07-20T17:21:52.237Z,45.67
2017-07-20T17:24:18.629Z,45.62
2017-07-20T17:26:44.983Z,45.30
2017-07-20T17:29:11.344Z,46.61
2017-07-20T17:31:37.733Z,46.93
2017-07-20T17:34:04.124Z,47.09
2017-07-20T17:36:30.475Z,48.01
2017-07-20T17:38:56.833Z,48.36
2017-07-20T17:41:23.190Z,47.94
2017-07-20T17:43:49.551Z,47.59
2017-07-20T17:46:15.891Z,48.44
2017-07-20T17:48:42.218Z,48.43
2017-07-20T17:51:08.587Z,49.34
2017-07-20T17:53:34.916Z,48.77
2017-07-20T17:56:01.261Z,49.05
2017-07-20T17:58:27.601Z,49.40
2017-07-20T18:00:53.969Z,49.54
2017-07-20T18:03:20.322Z,49.68
2017-07-20T18:05:46.666Z,49.33
2017-07-20T18:08:13.016Z,49.57
2017-07-20T18:10:39.372Z,49.95
2017-07-20T18:13:05.738Z,50.34
2017-07-20T18:15:32.086Z,50.54
2017-07-20T18:17:58.440Z,49.91
2017-07-20T18:20:24.788Z,49.95
2017-07-20T18:22:51.123Z,50.01
2017-07-20T18:25:17.532Z,50.29
2017-07-20T18:27:43.911Z,49.87
2017-07-20T18:30:10.279Z,50.14
2017-07-20T18:32:36.646Z,55.71
2017-07-20T18:35:03.009Z,60.09
2017-07-20T18:37:29.382Z,63.30
2017-07-20T18:39:55.728Z,62.68
2017-07-20T18:42:22.098Z,64.30
2017-07-20T18:44:48.474Z,66.63
2017-07-20T18:47:14.882Z,64.01
2017-07-20T18:49:41.259Z,65.22
2017-07-20T18:52:07.598Z,65.18
2017-07-20T18:54:33.936Z,66.64
2017-07-20T18:57:00.338Z,66.00
2017-07-20T18:59:26.745Z,67.09
2017-07-20T19:01:53.180Z,66.05
2017-07-20T19:04:19.586Z,63.48
2017-07-20T19:06:45.950Z,66.78
2017-07-20T19:09:12.353Z,66.48
2017-07-20T19:11:38.726Z,66.00
2017-07-20T19:14:05.504Z,65.54
2017-07-20T19:16:32.048Z,68.72
2017-07-20T19:18:58.449Z,65.55
2017-07-20T19:21:25.310Z,65.94
2017-07-20T19:23:51.763Z,64.55
2017-07-20T19:26:18.125Z,65.03
2017-07-20T19:28:44.551Z,64.50
2017-07-20T19:31:11.013Z,66.81
2017-07-20T19:33:37.472Z,64.31
2017-07-20T19:36:03.953Z,64.50
2017-07-20T19:38:30.503Z,66.81
2017-07-20T19:40:57.014Z,64.52
2017-07-20T19:43:23.476Z,66.78
2017-07-20T19:45:50.006Z,65.14
2017-07-20T19:48:16.413Z,64.86
2017-07-20T19:50:42.819Z,64.02
2017-07-20T19:53:09.238Z,65.32
2017-07-20T19:55:35.678Z,65.12
2017-07-20T19:58:02.089Z,64.74
2017-07-20T20:00:28.514Z,64.24
2017-07-20T20:02:54.950Z,63.34
2017-07-20T20:05:21.525Z,64.31
2017-07-20T20:07:48.099Z,65.24
2017-07-20T20:10:14.584Z,65.16
2017-07-20T20:12:40.949Z,64.53
2017-07-20T20:15:07.379Z,65.03
2017-07-20T20:17:33.760Z,64.73
2017-07-20T20:20:00.152Z,63.69
2017-07-20T20:22:26.580Z,65.74
2017-07-20T20:24:52.934Z,64.55
2017-07-20T20:27:19.344Z,66.48
2017-07-20T20:29:45.729Z,66.46
2017-07-20T20:32:12.081Z,65.17
2017-07-20T20:34:38.447Z,64.92
2017-07-20T20:37:04.782Z,66.44
2017-07-20T20:39:31.147Z,65.71
2017-07-20T20:41:57.539Z,65.47
2017-07-20T20:44:23.866Z,66.10
2017-07-20T20:46:50.248Z,66.55
2017-07-20T20:49:16.597Z,65.85
2017-07-20T20:51:42.947Z,67.02
2017-07-20T20:54:09.294Z,65.20
2017-07-20T20:56:35.754Z,64.44
2017-07-20T20:59:02.126Z,67.41
2017-07-20T21:01:28.575Z,67.90
2017-07-20T21:03:54.917Z,67.82
2017-07-20T21:06:21.326Z,68.75
2017-07-20T21:08:47.689Z,67.61
2017-07-20T21:11:14.069Z,67.59
2017-07-20T21:13:40.411Z,66.77
2017-07-20T21:16:06.735Z,67.43
2017-07-20T21:18:33.085Z,66.74
2017-07-20T21:20:59.421Z,70.07
2017-07-20T21:23:25.782Z,67.10
2017-07-20T21:25:52.166Z,67.79
2017-07-20T21:28:18.511Z,67.78
2017-07-20T21:30:44.864Z,67.91
2017-07-20T21:33:11.205Z,67.76
2017-07-20T21:35:37.506Z,66.97
2017-07-20T21:38:04.474Z,68.00
2017-07-20T21:40:30.800Z,69.79
2017-07-20T21:42:57.161Z,67.65
2017-07-20T21:45:23.681Z,70.06
2017-07-20T21:47:50.092Z,68.31
2017-07-20T21:50:17.119Z,69.81
2017-07-20T21:52:43.484Z,70.71
2017-07-20T21:55:09.835Z,69.46
2017-07-20T21:57:36.183Z,70.34
2017-07-20T22:00:02.579Z,68.91
2017-07-20T22:02:28.958Z,67.92
2017-07-20T22:04:55.317Z,67.75
2017-07-20T22:07:22.270Z,66.88
2017-07-20T22:09:49.014Z,68.50
2017-07-20T22:12:15.399Z,67.69
2017-07-20T22:14:42.312Z,67.55
2017-07-20T22:17:08.652Z,68.83
2017-07-20T22:19:34.955Z,70.87
2017-07-20T22:22:01.286Z,67.27
2017-07-20T22:24:27.612Z,67.94
2017-07-20T22:26:53.917Z,68.87
2017-07-20T22:29:20.252Z,68.09
2017-07-20T22:31:46.610Z,68.18
2017-07-20T22:34:12.962Z,67.85
2017-07-20T22:36:39.318Z,69.63
2017-07-20T22:39:05.665Z,71.37
2017-07-20T22:41:32.011Z,69.97
2017-07-20T22:43:58.672Z,69.76
2017-07-20T22:46:25.037Z,70.30
2017-07-20T22:48:51.365Z,69.21
2017-07-20T22:51:17.737Z,69.54
2017-07-20T22:53:44.735Z,68.04
2017-07-20T22:56:11.074Z,69.60
2017-07-20T22:58:37.401Z,68.24
2017-07-20T23:01:03.941Z,68.77
2017-07-20T23:03:30.319Z,68.48
2017-07-20T23:05:56.657Z,69.47
2017-07-20T23:08:26.570Z,70.38
2017-07-20T23:10:53.108Z,67.28
2017-07-20T23:13:20.281Z,71.06
2017-07-20T23:15:46.777Z,71.07
2017-07-20T23:18:13.307Z,68.14
2017-07-20T23:20:39.661Z,69.36
2017-07-20T23:23:05.994Z,68.46
2017-07-20T23:25:32.376Z,69.31
2017-07-20T23:27:58.742Z,67.66
2017-07-20T23:30:25.084Z,67.33
2017-07-20T23:32:51.431Z,68.02
2017-07-20T23:35:17.779Z,69.62
2017-07-20T23:37:44.120Z,68.55
2017-07-20T23:40:10.466Z,70.29
2017-07-20T23:42:36.808Z,69.80
2017-07-20T23:45:03.146Z,70.43
2017-07-20T23:47:29.491Z,68.46
2017-07-20T23:49:55.829Z,69.15
2017-07-20T23:52:22.194Z,67.60
2017-07-20T23:54:48.566Z,71.43
2017-07-20T23:57:14.953Z,70.51
2017-07-20T23:59:41.284Z,71.20
